sensor_id;sensor_type;location;lat;lon;timestamp;temperature;humidity
11666;DHT22;5889;51.350;6.708;2022-11-09T00:00:44;15.00;99.90
11666;DHT22;5889;51.350;6.708;2022-11-09T00:03:12;14.90;99.90
11666;DHT22;5889;51.350;6.708;2022-11-09T00:05:39;14.90;99.90
11666;DHT22;5889;51.350;6.708;2022-11-09T00:08:07;14.90;99.90
11666;DHT22;5889;51.350;6.708;2022-11-09T00:10:34;14.90;99.90
11666;DHT22;5889;51.350;6.708;2022-11-09T00:13:02;14.90;99.90
11666;DHT22;5889;51.350;6.708;2022-11-09T00:15:29;14.90;99.90
11666;DHT22;5889;51.350;6.708;2022-11-09T00:17:59;14.90;99.90
11666;DHT22;5889;51.350;6.708;2022-11-09T00:20:28;14.90;99.90
11666;DHT22;5889;51.350;6.708;2022-11-09T00:22:55;14.80;99.90
11666;DHT22;5889;51.350;6.708;2022-11-09T00:25:22;14.80;99.90
11666;DHT22;5889;51.350;6.708;2022-11-09T00:27:49;14.80;99.90
11666;DHT22;5889;51.350;6.708;2022-11-09T00:30:16;14.80;99.90
11666;DHT22;5889;51.350;6.708;2022-11-09T00:32:43;14.70;99.90
11666;DHT22;5889;51.350;6.708;2022-11-09T00:35:10;14.70;99.90
11666;DHT22;5889;51.350;6.708;2022-11-09T00:37:38;14.70;99.90
11666;DHT22;5889;51.350;6.708;2022-11-09T00:40:06;14.70;99.90
11666;DHT22;5889;51.350;6.708;2022-11-09T00:42:33;14.70;99.90
11666;DHT22;5889;51.350;6.708;2022-11-09T00:45:00;14.60;99.90
11666;DHT22;5889;51.350;6.708;2022-11-09T00:47:27;14.60;99.90
11666;DHT22;5889;51.350;6.708;2022-11-09T00:49:54;14.50;99.90
11666;DHT22;5889;51.350;6.708;2022-11-09T00:52:21;14.50;99.90
11666;DHT22;5889;51.350;6.708;2022-11-09T00:54:49;14.50;99.90
11666;DHT22;5889;51.350;6.708;2022-11-09T00:57:16;14.50;99.90
11666;DHT22;5889;51.350;6.708;2022-11-09T00:59:43;14.50;99.90
11666;DHT22;5889;51.350;6.708;2022-11-09T01:02:10;14.50;99.90
11666;DHT22;5889;51.350;6.708;2022-11-09T01:04:37;14.50;99.90
11666;DHT22;5889;51.350;6.708;2022-11-09T01:07:05;14.50;99.90
11666;DHT22;5889;51.350;6.708;2022-11-09T01:09:32;14.50;99.90
11666;DHT22;5889;51.350;6.708;2022-11-09T01:12:01;14.50;99.90
11666;DHT22;5889;51.350;6.708;2022-11-09T01:14:31;14.50;99.90
11666;DHT22;5889;51.350;6.708;2022-11-09T01:16:58;14.50;99.90
11666;DHT22;5889;51.350;6.708;2022-11-09T01:19:25;14.50;99.90
11666;DHT22;5889;51.350;6.708;2022-11-09T01:21:54;14.50;99.90
11666;DHT22;5889;51.350;6.708;2022-11-09T01:24:22;14.50;99.90
11666;DHT22;5889;51.350;6.708;2022-11-09T01:26:48;14.50;99.90
11666;DHT22;5889;51.350;6.708;2022-11-09T01:29:17;14.50;99.90
11666;DHT22;5889;51.350;6.708;2022-11-09T01:31:44;14.50;99.90
11666;DHT22;5889;51.350;6.708;2022-11-09T01:34:11;14.50;99.90
11666;DHT22;5889;51.350;6.708;2022-11-09T01:36:38;14.50;99.90
11666;DHT22;5889;51.350;6.708;2022-11-09T01:39:05;14.40;99.90
11666;DHT22;5889;51.350;6.708;2022-11-09T01:41:32;14.40;99.90
11666;DHT22;5889;51.350;6.708;2022-11-09T01:44:04;14.40;99.90
11666;DHT22;5889;51.350;6.708;2022-11-09T01:46:36;14.40;99.90
11666;DHT22;5889;51.350;6.708;2022-11-09T01:49:12;14.40;99.90
11666;DHT22;5889;51.350;6.708;2022-11-09T01:51:44;14.30;99.90
11666;DHT22;5889;51.350;6.708;2022-11-09T01:54:14;14.30;99.90
11666;DHT22;5889;51.350;6.708;2022-11-09T01:56:43;14.30;99.90
11666;DHT22;5889;51.350;6.708;2022-11-09T01:59:14;14.20;99.90
11666;DHT22;5889;51.350;6.708;2022-11-09T02:01:43;14.20;99.90
11666;DHT22;5889;51.350;6.708;2022-11-09T02:04:20;14.20;99.90
11666;DHT22;5889;51.350;6.708;2022-11-09T02:06:49;14.20;99.90
11666;DHT22;5889;51.350;6.708;2022-11-09T02:09:22;14.10;99.90
11666;DHT22;5889;51.350;6.708;2022-11-09T02:11:50;14.10;99.90
11666;DHT22;5889;51.350;6.708;2022-11-09T02:14:18;14.00;99.90
11666;DHT22;5889;51.350;6.708;2022-11-09T02:16:47;14.00;99.90
11666;DHT22;5889;51.350;6.708;2022-11-09T02:19:14;14.00;99.90
11666;DHT22;5889;51.350;6.708;2022-11-09T02:21:42;14.00;99.90
11666;DHT22;5889;51.350;6.708;2022-11-09T02:24:10;13.90;99.90
11666;DHT22;5889;51.350;6.708;2022-11-09T02:26:40;13.90;99.90
11666;DHT22;5889;51.350;6.708;2022-11-09T02:29:11;13.90;99.90
11666;DHT22;5889;51.350;6.708;2022-11-09T02:31:43;13.90;99.90
11666;DHT22;5889;51.350;6.708;2022-11-09T02:34:13;13.90;99.90
11666;DHT22;5889;51.350;6.708;2022-11-09T02:36:42;13.90;99.90
11666;DHT22;5889;51.350;6.708;2022-11-09T02:39:09;13.80;99.90
11666;DHT22;5889;51.350;6.708;2022-11-09T02:41:42;13.80;99.90
11666;DHT22;5889;51.350;6.708;2022-11-09T02:44:09;13.80;99.90
11666;DHT22;5889;51.350;6.708;2022-11-09T02:46:37;13.80;99.90
11666;DHT22;5889;51.350;6.708;2022-11-09T02:49:04;13.70;99.90
11666;DHT22;5889;51.350;6.708;2022-11-09T02:51:31;13.70;99.90
11666;DHT22;5889;51.350;6.708;2022-11-09T02:53:59;13.70;99.90
11666;DHT22;5889;51.350;6.708;2022-11-09T02:56:26;13.70;99.90
11666;DHT22;5889;51.350;6.708;2022-11-09T02:58:53;13.70;99.90
11666;DHT22;5889;51.350;6.708;2022-11-09T03:01:20;13.70;99.90
11666;DHT22;5889;51.350;6.708;2022-11-09T03:03:47;13.80;99.90
11666;DHT22;5889;51.350;6.708;2022-11-09T03:06:14;13.80;99.90
11666;DHT22;5889;51.350;6.708;2022-11-09T03:08:41;13.80;99.90
11666;DHT22;5889;51.350;6.708;2022-11-09T03:11:09;13.80;99.90
11666;DHT22;5889;51.350;6.708;2022-11-09T03:13:36;13.80;99.90
11666;DHT22;5889;51.350;6.708;2022-11-09T03:16:04;13.90;99.90
11666;DHT22;5889;51.350;6.708;2022-11-09T03:18:31;13.90;99.90
11666;DHT22;5889;51.350;6.708;2022-11-09T03:21:01;13.90;99.90
11666;DHT22;5889;51.350;6.708;2022-11-09T03:23:29;14.00;99.90
11666;DHT22;5889;51.350;6.708;2022-11-09T03:25:56;14.00;99.90
11666;DHT22;5889;51.350;6.708;2022-11-09T03:28:25;14.10;99.90
11666;DHT22;5889;51.350;6.708;2022-11-09T03:30:52;14.10;99.90
11666;DHT22;5889;51.350;6.708;2022-11-09T03:33:19;14.20;99.90
11666;DHT22;5889;51.350;6.708;2022-11-09T03:35:46;14.20;99.90
11666;DHT22;5889;51.350;6.708;2022-11-09T03:38:13;14.20;99.90
11666;DHT22;5889;51.350;6.708;2022-11-09T03:40:40;14.20;99.90
11666;DHT22;5889;51.350;6.708;2022-11-09T03:43:07;14.20;99.90
11666;DHT22;5889;51.350;6.708;2022-11-09T03:45:35;14.30;99.90
11666;DHT22;5889;51.350;6.708;2022-11-09T03:48:02;14.30;99.90
11666;DHT22;5889;51.350;6.708;2022-11-09T03:50:32;14.30;99.90
11666;DHT22;5889;51.350;6.708;2022-11-09T03:53:00;14.40;99.90
11666;DHT22;5889;51.350;6.708;2022-11-09T03:55:27;14.40;99.90
11666;DHT22;5889;51.350;6.708;2022-11-09T03:57:55;14.40;99.90
11666;DHT22;5889;51.350;6.708;2022-11-09T04:00:22;14.40;99.90
11666;DHT22;5889;51.350;6.708;2022-11-09T04:02:51;14.40;99.90
11666;DHT22;5889;51.350;6.708;2022-11-09T04:05:18;14.40;99.90
11666;DHT22;5889;51.350;6.708;2022-11-09T04:07:48;14.50;99.90
11666;DHT22;5889;51.350;6.708;2022-11-09T04:10:16;14.40;99.90
11666;DHT22;5889;51.350;6.708;2022-11-09T04:12:43;14.50;99.90
11666;DHT22;5889;51.350;6.708;2022-11-09T04:15:11;14.50;99.90
11666;DHT22;5889;51.350;6.708;2022-11-09T04:17:38;14.50;99.90
11666;DHT22;5889;51.350;6.708;2022-11-09T04:20:08;14.50;99.90
11666;DHT22;5889;51.350;6.708;2022-11-09T04:22:35;14.50;99.90
11666;DHT22;5889;51.350;6.708;2022-11-09T04:25:02;14.50;99.90
11666;DHT22;5889;51.350;6.708;2022-11-09T04:27:29;14.50;99.90
11666;DHT22;5889;51.350;6.708;2022-11-09T04:29:56;14.50;99.90
11666;DHT22;5889;51.350;6.708;2022-11-09T04:32:23;14.50;99.90
11666;DHT22;5889;51.350;6.708;2022-11-09T04:34:50;14.50;99.90
11666;DHT22;5889;51.350;6.708;2022-11-09T04:37:18;14.50;99.90
11666;DHT22;5889;51.350;6.708;2022-11-09T04:39:45;14.50;99.90
11666;DHT22;5889;51.350;6.708;2022-11-09T04:42:12;14.50;99.90
11666;DHT22;5889;51.350;6.708;2022-11-09T04:44:39;14.50;99.90
11666;DHT22;5889;51.350;6.708;2022-11-09T04:47:06;14.50;99.90
11666;DHT22;5889;51.350;6.708;2022-11-09T04:49:33;14.50;99.90
11666;DHT22;5889;51.350;6.708;2022-11-09T04:51:59;14.50;99.90
11666;DHT22;5889;51.350;6.708;2022-11-09T04:54:28;14.50;99.90
11666;DHT22;5889;51.350;6.708;2022-11-09T04:56:55;14.50;99.90
11666;DHT22;5889;51.350;6.708;2022-11-09T04:59:22;14.50;99.90
11666;DHT22;5889;51.350;6.708;2022-11-09T05:01:49;14.40;99.90
11666;DHT22;5889;51.350;6.708;2022-11-09T05:04:16;14.40;99.90
11666;DHT22;5889;51.350;6.708;2022-11-09T05:06:42;14.40;99.90
11666;DHT22;5889;51.350;6.708;2022-11-09T05:09:09;14.40;99.90
11666;DHT22;5889;51.350;6.708;2022-11-09T05:11:38;14.30;99.90
11666;DHT22;5889;51.350;6.708;2022-11-09T05:14:05;14.30;99.90
11666;DHT22;5889;51.350;6.708;2022-11-09T05:16:32;14.30;99.90
11666;DHT22;5889;51.350;6.708;2022-11-09T05:18:59;14.30;99.90
11666;DHT22;5889;51.350;6.708;2022-11-09T05:21:25;14.30;99.90
11666;DHT22;5889;51.350;6.708;2022-11-09T05:23:52;14.30;99.90
11666;DHT22;5889;51.350;6.708;2022-11-09T05:26:26;14.20;99.90
11666;DHT22;5889;51.350;6.708;2022-11-09T05:28:55;14.20;99.90
11666;DHT22;5889;51.350;6.708;2022-11-09T05:31:23;14.20;99.90
11666;DHT22;5889;51.350;6.708;2022-11-09T05:33:51;14.20;99.90
11666;DHT22;5889;51.350;6.708;2022-11-09T05:36:18;14.10;99.90
11666;DHT22;5889;51.350;6.708;2022-11-09T05:38:45;14.10;99.90
11666;DHT22;5889;51.350;6.708;2022-11-09T05:41:13;14.10;99.90
11666;DHT22;5889;51.350;6.708;2022-11-09T05:43:40;13.90;99.90
11666;DHT22;5889;51.350;6.708;2022-11-09T05:46:10;13.90;99.90
11666;DHT22;5889;51.350;6.708;2022-11-09T05:48:38;13.80;99.90
11666;DHT22;5889;51.350;6.708;2022-11-09T05:51:06;13.80;99.90
11666;DHT22;5889;51.350;6.708;2022-11-09T05:53:33;13.80;99.90
11666;DHT22;5889;51.350;6.708;2022-11-09T05:56:01;13.80;99.90
11666;DHT22;5889;51.350;6.708;2022-11-09T05:58:29;13.70;99.90
11666;DHT22;5889;51.350;6.708;2022-11-09T06:00:57;13.70;99.90
11666;DHT22;5889;51.350;6.708;2022-11-09T06:03:26;13.70;99.90
11666;DHT22;5889;51.350;6.708;2022-11-09T06:05:53;13.70;99.90
11666;DHT22;5889;51.350;6.708;2022-11-09T06:08:20;13.70;99.90
11666;DHT22;5889;51.350;6.708;2022-11-09T06:10:47;13.70;99.90
11666;DHT22;5889;51.350;6.708;2022-11-09T06:13:14;13.70;99.90
11666;DHT22;5889;51.350;6.708;2022-11-09T06:15:41;13.70;99.90
11666;DHT22;5889;51.350;6.708;2022-11-09T06:18:08;13.70;99.90
11666;DHT22;5889;51.350;6.708;2022-11-09T06:20:36;13.70;99.90
11666;DHT22;5889;51.350;6.708;2022-11-09T06:23:03;13.70;99.90
11666;DHT22;5889;51.350;6.708;2022-11-09T06:25:30;13.70;99.90
11666;DHT22;5889;51.350;6.708;2022-11-09T06:27:57;13.70;99.90
11666;DHT22;5889;51.350;6.708;2022-11-09T06:30:24;13.70;99.90
11666;DHT22;5889;51.350;6.708;2022-11-09T06:32:57;13.70;99.90
11666;DHT22;5889;51.350;6.708;2022-11-09T06:35:24;13.70;99.90
11666;DHT22;5889;51.350;6.708;2022-11-09T06:37:55;13.70;99.90
11666;DHT22;5889;51.350;6.708;2022-11-09T06:40:22;13.70;99.90
11666;DHT22;5889;51.350;6.708;2022-11-09T06:42:49;13.70;99.90
11666;DHT22;5889;51.350;6.708;2022-11-09T06:45:16;13.70;99.90
11666;DHT22;5889;51.350;6.708;2022-11-09T06:47:43;13.70;99.90
11666;DHT22;5889;51.350;6.708;2022-11-09T06:50:10;13.70;99.90
11666;DHT22;5889;51.350;6.708;2022-11-09T06:52:37;13.70;99.90
11666;DHT22;5889;51.350;6.708;2022-11-09T06:55:07;13.70;99.90
11666;DHT22;5889;51.350;6.708;2022-11-09T06:57:34;13.60;99.90
11666;DHT22;5889;51.350;6.708;2022-11-09T07:00:01;13.50;99.90
11666;DHT22;5889;51.350;6.708;2022-11-09T07:02:28;13.50;99.90
11666;DHT22;5889;51.350;6.708;2022-11-09T07:04:55;13.40;99.90
11666;DHT22;5889;51.350;6.708;2022-11-09T07:07:22;13.40;99.90
11666;DHT22;5889;51.350;6.708;2022-11-09T07:09:49;13.40;99.90
11666;DHT22;5889;51.350;6.708;2022-11-09T07:12:17;13.30;99.90
11666;DHT22;5889;51.350;6.708;2022-11-09T07:14:44;13.30;99.90
11666;DHT22;5889;51.350;6.708;2022-11-09T07:17:11;13.30;99.90
11666;DHT22;5889;51.350;6.708;2022-11-09T07:19:38;13.30;99.90
11666;DHT22;5889;51.350;6.708;2022-11-09T07:22:05;13.30;99.90
11666;DHT22;5889;51.350;6.708;2022-11-09T07:24:32;13.20;99.90
11666;DHT22;5889;51.350;6.708;2022-11-09T07:26:59;13.20;99.90
11666;DHT22;5889;51.350;6.708;2022-11-09T07:29:27;13.20;99.90
11666;DHT22;5889;51.350;6.708;2022-11-09T07:31:54;13.20;99.90
11666;DHT22;5889;51.350;6.708;2022-11-09T07:34:21;13.20;99.90
11666;DHT22;5889;51.350;6.708;2022-11-09T07:36:48;13.20;99.90
11666;DHT22;5889;51.350;6.708;2022-11-09T07:39:15;13.20;99.90
11666;DHT22;5889;51.350;6.708;2022-11-09T07:41:42;13.20;99.90
11666;DHT22;5889;51.350;6.708;2022-11-09T07:44:09;13.20;99.90
11666;DHT22;5889;51.350;6.708;2022-11-09T07:46:40;13.20;99.90
11666;DHT22;5889;51.350;6.708;2022-11-09T07:49:07;13.20;99.90
11666;DHT22;5889;51.350;6.708;2022-11-09T07:51:34;13.20;99.90
11666;DHT22;5889;51.350;6.708;2022-11-09T07:54:01;13.20;99.90
11666;DHT22;5889;51.350;6.708;2022-11-09T07:56:28;13.30;99.90
11666;DHT22;5889;51.350;6.708;2022-11-09T07:58:55;13.30;99.90
11666;DHT22;5889;51.350;6.708;2022-11-09T08:01:22;13.30;99.90
11666;DHT22;5889;51.350;6.708;2022-11-09T08:03:53;13.40;99.90
11666;DHT22;5889;51.350;6.708;2022-11-09T08:06:20;13.40;99.90
11666;DHT22;5889;51.350;6.708;2022-11-09T08:08:48;13.40;99.90
11666;DHT22;5889;51.350;6.708;2022-11-09T08:11:15;13.40;99.90
11666;DHT22;5889;51.350;6.708;2022-11-09T08:13:42;13.40;99.90
11666;DHT22;5889;51.350;6.708;2022-11-09T08:16:09;13.40;99.90
11666;DHT22;5889;51.350;6.708;2022-11-09T08:18:37;13.40;99.90
11666;DHT22;5889;51.350;6.708;2022-11-09T08:21:05;13.50;99.90
11666;DHT22;5889;51.350;6.708;2022-11-09T08:23:32;13.50;99.90
11666;DHT22;5889;51.350;6.708;2022-11-09T08:26:02;13.50;99.90
11666;DHT22;5889;51.350;6.708;2022-11-09T08:28:29;13.60;99.90
11666;DHT22;5889;51.350;6.708;2022-11-09T08:30:57;13.60;99.90
11666;DHT22;5889;51.350;6.708;2022-11-09T08:33:26;13.60;99.90
11666;DHT22;5889;51.350;6.708;2022-11-09T08:35:53;13.70;99.90
11666;DHT22;5889;51.350;6.708;2022-11-09T08:38:22;13.70;99.90
11666;DHT22;5889;51.350;6.708;2022-11-09T08:40:49;13.80;99.90
11666;DHT22;5889;51.350;6.708;2022-11-09T08:43:16;13.80;99.90
11666;DHT22;5889;51.350;6.708;2022-11-09T08:45:43;13.80;99.90
11666;DHT22;5889;51.350;6.708;2022-11-09T08:48:10;13.80;99.90
11666;DHT22;5889;51.350;6.708;2022-11-09T08:50:38;14.00;99.90
11666;DHT22;5889;51.350;6.708;2022-11-09T08:53:05;13.90;99.90
11666;DHT22;5889;51.350;6.708;2022-11-09T08:55:34;14.00;99.90
11666;DHT22;5889;51.350;6.708;2022-11-09T08:58:02;14.00;99.90
11666;DHT22;5889;51.350;6.708;2022-11-09T09:00:29;14.10;99.90
11666;DHT22;5889;51.350;6.708;2022-11-09T09:02:56;14.10;99.90
11666;DHT22;5889;51.350;6.708;2022-11-09T09:05:23;14.20;99.90
11666;DHT22;5889;51.350;6.708;2022-11-09T09:07:51;14.20;99.90
11666;DHT22;5889;51.350;6.708;2022-11-09T09:10:17;14.30;99.90
11666;DHT22;5889;51.350;6.708;2022-11-09T09:12:46;14.30;99.90
11666;DHT22;5889;51.350;6.708;2022-11-09T09:15:13;14.40;99.90
11666;DHT22;5889;51.350;6.708;2022-11-09T09:17:40;14.40;99.90
11666;DHT22;5889;51.350;6.708;2022-11-09T09:20:07;14.50;99.90
11666;DHT22;5889;51.350;6.708;2022-11-09T09:22:34;14.50;99.90
11666;DHT22;5889;51.350;6.708;2022-11-09T09:25:01;14.60;99.90
11666;DHT22;5889;51.350;6.708;2022-11-09T09:27:28;14.60;99.90
11666;DHT22;5889;51.350;6.708;2022-11-09T09:29:56;14.60;99.90
11666;DHT22;5889;51.350;6.708;2022-11-09T09:32:23;14.70;99.90
11666;DHT22;5889;51.350;6.708;2022-11-09T09:34:50;14.70;99.90
11666;DHT22;5889;51.350;6.708;2022-11-09T09:37:17;14.70;99.90
11666;DHT22;5889;51.350;6.708;2022-11-09T09:39:44;14.80;99.90
11666;DHT22;5889;51.350;6.708;2022-11-09T09:42:15;14.90;99.90
11666;DHT22;5889;51.350;6.708;2022-11-09T09:44:48;14.90;99.90
11666;DHT22;5889;51.350;6.708;2022-11-09T09:47:23;15.00;99.90
11666;DHT22;5889;51.350;6.708;2022-11-09T09:49:54;15.00;99.90
11666;DHT22;5889;51.350;6.708;2022-11-09T09:52:27;15.00;99.90
11666;DHT22;5889;51.350;6.708;2022-11-09T09:55:03;15.00;99.90
11666;DHT22;5889;51.350;6.708;2022-11-09T09:57:31;15.00;99.90
11666;DHT22;5889;51.350;6.708;2022-11-09T10:00:00;15.10;99.90
11666;DHT22;5889;51.350;6.708;2022-11-09T10:02:32;15.10;99.90
11666;DHT22;5889;51.350;6.708;2022-11-09T10:05:02;15.20;99.90
11666;DHT22;5889;51.350;6.708;2022-11-09T10:07:43;15.30;99.90
11666;DHT22;5889;51.350;6.708;2022-11-09T10:10:30;15.30;99.90
11666;DHT22;5889;51.350;6.708;2022-11-09T10:13:13;15.40;99.90
11666;DHT22;5889;51.350;6.708;2022-11-09T10:15:48;15.40;99.90
11666;DHT22;5889;51.350;6.708;2022-11-09T10:18:33;15.40;99.90
11666;DHT22;5889;51.350;6.708;2022-11-09T10:21:14;15.40;99.90
11666;DHT22;5889;51.350;6.708;2022-11-09T10:23:51;15.40;99.90
11666;DHT22;5889;51.350;6.708;2022-11-09T10:26:22;15.40;99.90
11666;DHT22;5889;51.350;6.708;2022-11-09T10:28:56;15.40;99.90
11666;DHT22;5889;51.350;6.708;2022-11-09T10:31:30;15.50;99.90
11666;DHT22;5889;51.350;6.708;2022-11-09T10:34:01;15.50;99.90
11666;DHT22;5889;51.350;6.708;2022-11-09T10:36:36;15.50;99.90
11666;DHT22;5889;51.350;6.708;2022-11-09T10:39:07;15.50;99.90
11666;DHT22;5889;51.350;6.708;2022-11-09T10:41:39;15.60;99.90
11666;DHT22;5889;51.350;6.708;2022-11-09T10:44:12;15.70;99.90
11666;DHT22;5889;51.350;6.708;2022-11-09T10:47:01;15.70;99.90
11666;DHT22;5889;51.350;6.708;2022-11-09T10:49:31;15.80;99.90
11666;DHT22;5889;51.350;6.708;2022-11-09T10:52:00;15.80;99.90
11666;DHT22;5889;51.350;6.708;2022-11-09T10:54:28;15.70;99.90
11666;DHT22;5889;51.350;6.708;2022-11-09T10:57:13;15.70;99.90
11666;DHT22;5889;51.350;6.708;2022-11-09T10:59:47;15.70;99.90
11666;DHT22;5889;51.350;6.708;2022-11-09T11:02:41;15.70;99.90
11666;DHT22;5889;51.350;6.708;2022-11-09T11:05:32;15.60;99.90
11666;DHT22;5889;51.350;6.708;2022-11-09T11:08:27;15.60;99.90
11666;DHT22;5889;51.350;6.708;2022-11-09T11:11:22;15.50;99.90
11666;DHT22;5889;51.350;6.708;2022-11-09T11:13:50;15.40;99.90
11666;DHT22;5889;51.350;6.708;2022-11-09T11:16:26;15.30;99.90
11666;DHT22;5889;51.350;6.708;2022-11-09T11:18:54;15.40;99.90
11666;DHT22;5889;51.350;6.708;2022-11-09T11:21:25;15.40;99.90
11666;DHT22;5889;51.350;6.708;2022-11-09T11:24:17;15.40;99.90
11666;DHT22;5889;51.350;6.708;2022-11-09T11:26:52;15.50;99.90
11666;DHT22;5889;51.350;6.708;2022-11-09T11:29:36;15.50;99.90
11666;DHT22;5889;51.350;6.708;2022-11-09T11:32:08;15.50;99.90
11666;DHT22;5889;51.350;6.708;2022-11-09T11:34:36;15.50;99.90
11666;DHT22;5889;51.350;6.708;2022-11-09T11:37:19;15.40;99.90
11666;DHT22;5889;51.350;6.708;2022-11-09T11:40:00;15.40;99.90
11666;DHT22;5889;51.350;6.708;2022-11-09T11:45:34;15.50;99.90
11666;DHT22;5889;51.350;6.708;2022-11-09T11:48:20;15.50;99.90
11666;DHT22;5889;51.350;6.708;2022-11-09T11:50:53;15.60;99.90
11666;DHT22;5889;51.350;6.708;2022-11-09T11:53:35;15.60;99.90
11666;DHT22;5889;51.350;6.708;2022-11-09T11:56:22;15.60;99.90
11666;DHT22;5889;51.350;6.708;2022-11-09T11:59:30;15.60;99.90
11666;DHT22;5889;51.350;6.708;2022-11-09T12:02:14;15.70;99.90
11666;DHT22;5889;51.350;6.708;2022-11-09T12:05:27;15.70;99.90
11666;DHT22;5889;51.350;6.708;2022-11-09T12:08:01;15.70;99.90
11666;DHT22;5889;51.350;6.708;2022-11-09T12:10:40;15.60;99.90
11666;DHT22;5889;51.350;6.708;2022-11-09T12:13:17;15.50;99.90
11666;DHT22;5889;51.350;6.708;2022-11-09T12:15:53;15.50;99.90
11666;DHT22;5889;51.350;6.708;2022-11-09T12:18:34;15.50;99.90
11666;DHT22;5889;51.350;6.708;2022-11-09T12:21:13;15.60;99.90
11666;DHT22;5889;51.350;6.708;2022-11-09T12:24:00;15.60;99.90
11666;DHT22;5889;51.350;6.708;2022-11-09T12:26:42;15.70;99.90
11666;DHT22;5889;51.350;6.708;2022-11-09T12:29:17;15.60;99.90
11666;DHT22;5889;51.350;6.708;2022-11-09T12:32:02;15.60;99.90
11666;DHT22;5889;51.350;6.708;2022-11-09T12:34:36;15.60;99.90
11666;DHT22;5889;51.350;6.708;2022-11-09T12:37:10;15.60;99.90
11666;DHT22;5889;51.350;6.708;2022-11-09T12:39:42;15.70;99.90
11666;DHT22;5889;51.350;6.708;2022-11-09T12:42:16;15.60;99.90
11666;DHT22;5889;51.350;6.708;2022-11-09T12:44:53;15.70;99.90
11666;DHT22;5889;51.350;6.708;2022-11-09T12:47:25;15.70;99.90
11666;DHT22;5889;51.350;6.708;2022-11-09T12:49:53;15.70;99.90
11666;DHT22;5889;51.350;6.708;2022-11-09T12:52:24;15.70;99.90
11666;DHT22;5889;51.350;6.708;2022-11-09T12:54:52;15.70;99.90
11666;DHT22;5889;51.350;6.708;2022-11-09T12:57:23;15.80;99.90
11666;DHT22;5889;51.350;6.708;2022-11-09T12:59:52;15.90;99.90
11666;DHT22;5889;51.350;6.708;2022-11-09T13:02:27;15.90;99.90
11666;DHT22;5889;51.350;6.708;2022-11-09T13:04:59;15.90;99.90
11666;DHT22;5889;51.350;6.708;2022-11-09T13:07:44;15.90;99.90
11666;DHT22;5889;51.350;6.708;2022-11-09T13:10:31;15.90;99.90
11666;DHT22;5889;51.350;6.708;2022-11-09T13:13:17;15.90;99.90
11666;DHT22;5889;51.350;6.708;2022-11-09T13:16:09;15.90;99.90
11666;DHT22;5889;51.350;6.708;2022-11-09T13:18:49;15.90;99.90
11666;DHT22;5889;51.350;6.708;2022-11-09T13:21:37;15.80;99.90
11666;DHT22;5889;51.350;6.708;2022-11-09T13:27:41;15.90;99.90
11666;DHT22;5889;51.350;6.708;2022-11-09T13:30:38;15.80;99.90
11666;DHT22;5889;51.350;6.708;2022-11-09T13:33:23;15.70;99.90
11666;DHT22;5889;51.350;6.708;2022-11-09T13:36:12;15.70;99.90
11666;DHT22;5889;51.350;6.708;2022-11-09T13:38:40;15.60;99.90
11666;DHT22;5889;51.350;6.708;2022-11-09T13:44:12;15.60;99.90
11666;DHT22;5889;51.350;6.708;2022-11-09T13:46:44;15.60;99.90
11666;DHT22;5889;51.350;6.708;2022-11-09T13:49:37;15.60;99.90
11666;DHT22;5889;51.350;6.708;2022-11-09T13:52:35;15.60;99.90
11666;DHT22;5889;51.350;6.708;2022-11-09T13:54:53;15.50;99.90
11666;DHT22;5889;51.350;6.708;2022-11-09T13:57:21;15.50;99.90
11666;DHT22;5889;51.350;6.708;2022-11-09T13:59:49;15.40;99.90
11666;DHT22;5889;51.350;6.708;2022-11-09T14:02:20;15.40;99.90
11666;DHT22;5889;51.350;6.708;2022-11-09T14:04:47;15.40;99.90
11666;DHT22;5889;51.350;6.708;2022-11-09T14:07:19;15.40;99.90
11666;DHT22;5889;51.350;6.708;2022-11-09T14:09:58;15.40;99.90
11666;DHT22;5889;51.350;6.708;2022-11-09T14:12:34;15.40;99.90
11666;DHT22;5889;51.350;6.708;2022-11-09T14:15:18;15.40;99.90
11666;DHT22;5889;51.350;6.708;2022-11-09T14:17:57;15.40;99.90
11666;DHT22;5889;51.350;6.708;2022-11-09T14:20:31;15.40;99.90
11666;DHT22;5889;51.350;6.708;2022-11-09T14:23:01;15.40;99.90
11666;DHT22;5889;51.350;6.708;2022-11-09T14:25:29;15.30;99.90
11666;DHT22;5889;51.350;6.708;2022-11-09T14:28:01;15.30;99.90
11666;DHT22;5889;51.350;6.708;2022-11-09T14:30:29;15.30;99.90
11666;DHT22;5889;51.350;6.708;2022-11-09T14:32:58;15.30;99.90
11666;DHT22;5889;51.350;6.708;2022-11-09T14:35:27;15.40;99.90
11666;DHT22;5889;51.350;6.708;2022-11-09T14:37:58;15.40;99.90
11666;DHT22;5889;51.350;6.708;2022-11-09T14:40:27;15.40;99.90
11666;DHT22;5889;51.350;6.708;2022-11-09T14:42:56;15.30;99.90
11666;DHT22;5889;51.350;6.708;2022-11-09T14:45:25;15.40;99.90
11666;DHT22;5889;51.350;6.708;2022-11-09T14:47:55;15.30;99.90
11666;DHT22;5889;51.350;6.708;2022-11-09T14:50:26;15.20;99.90
11666;DHT22;5889;51.350;6.708;2022-11-09T14:52:54;15.10;99.90
11666;DHT22;5889;51.350;6.708;2022-11-09T14:55:23;15.10;99.90
11666;DHT22;5889;51.350;6.708;2022-11-09T14:57:52;15.00;99.90
11666;DHT22;5889;51.350;6.708;2022-11-09T15:00:25;15.00;99.90
11666;DHT22;5889;51.350;6.708;2022-11-09T15:02:54;14.90;99.90
11666;DHT22;5889;51.350;6.708;2022-11-09T15:05:32;14.90;99.90
11666;DHT22;5889;51.350;6.708;2022-11-09T15:08:00;14.80;99.90
11666;DHT22;5889;51.350;6.708;2022-11-09T15:10:28;14.70;99.90
11666;DHT22;5889;51.350;6.708;2022-11-09T15:12:59;14.70;99.90
11666;DHT22;5889;51.350;6.708;2022-11-09T15:15:28;14.70;99.90
11666;DHT22;5889;51.350;6.708;2022-11-09T15:17:56;14.70;99.90
11666;DHT22;5889;51.350;6.708;2022-11-09T15:20:26;14.60;99.90
11666;DHT22;5889;51.350;6.708;2022-11-09T15:22:56;14.60;99.90
11666;DHT22;5889;51.350;6.708;2022-11-09T15:25:26;14.50;99.90
11666;DHT22;5889;51.350;6.708;2022-11-09T15:28:22;14.40;99.90
11666;DHT22;5889;51.350;6.708;2022-11-09T15:31:10;14.30;99.90
11666;DHT22;5889;51.350;6.708;2022-11-09T15:33:45;14.20;99.90
11666;DHT22;5889;51.350;6.708;2022-11-09T15:36:25;14.10;99.90
11666;DHT22;5889;51.350;6.708;2022-11-09T15:39:01;14.00;99.90
11666;DHT22;5889;51.350;6.708;2022-11-09T15:41:28;14.00;99.90
11666;DHT22;5889;51.350;6.708;2022-11-09T15:43:56;13.90;99.90
11666;DHT22;5889;51.350;6.708;2022-11-09T15:46:24;13.90;99.90
11666;DHT22;5889;51.350;6.708;2022-11-09T15:48:52;13.80;99.90
11666;DHT22;5889;51.350;6.708;2022-11-09T15:51:19;13.80;99.90
11666;DHT22;5889;51.350;6.708;2022-11-09T15:53:46;13.70;99.90
11666;DHT22;5889;51.350;6.708;2022-11-09T15:56:17;13.60;99.90
11666;DHT22;5889;51.350;6.708;2022-11-09T15:58:44;13.60;99.90
11666;DHT22;5889;51.350;6.708;2022-11-09T16:01:13;13.60;99.90
11666;DHT22;5889;51.350;6.708;2022-11-09T16:03:40;13.60;99.90
11666;DHT22;5889;51.350;6.708;2022-11-09T16:06:09;13.50;99.90
11666;DHT22;5889;51.350;6.708;2022-11-09T16:08:36;13.40;99.90
11666;DHT22;5889;51.350;6.708;2022-11-09T16:11:04;13.40;99.90
11666;DHT22;5889;51.350;6.708;2022-11-09T16:13:33;13.40;99.90
11666;DHT22;5889;51.350;6.708;2022-11-09T16:16:01;13.40;99.90